Strona główna
METAR-TAF:

METAR-TAF

Lotnisko :

Port lotniczy Arnhem-Deelen

Arnhem, Holandia

Szerokość geograficzna: 52-04N, Długość geograficzna: 005-53E, wysokość: 48 m

Aktualna obserwacja pogody

Raport powstał 29 minut temu, godzina 13:25 UTC
Wiatr 6 kt od wschodnio-południowy wschód, zmienny między wschodnio-południowy wschód i południowy zachód
Temperatura 30°C
Wilgotność 29%
Ciśnienie 1020 hPa
Widzialność 10 km lub więcej

METAR: EHDL 241325Z AUTO 12006KT 110V230 9999 NCD 30/10 Q1020 BLU

czas: 15:54 (13:54 UTC)


TAF: brakujący

Obserwacja i prognoza pogody dla ponad 4000 lotnisk (raport METAR i TAF).

Dostępne stacje oznaczono żółtymi i czerwonymi punktami na mapie.

Najedź kursorem aby zobaczyć nazwę stacji.

Kliknij aby zobaczyć obserwacje i prognozy pogody.

Aby zmienić mapę: kliknij na zielony przycisk z czarnym krzyżykiem, aby powiększyć; na zielony przycisk z myślnikiem, aby pomniejszyć; na zielone strzałki, aby przejść do map sąsiednich.


METAR-TAF: